sensor_id;sensor_type;location;lat;lon;timestamp;P1;durP1;ratioP1;P2;durP2;ratioP2
2762;SDS011;1389;51.490;7.338;2023-03-17T00:00:20;1999.90;;;999.90;;
2762;SDS011;1389;51.490;7.338;2023-03-17T00:02:47;1999.90;;;999.90;;
2762;SDS011;1389;51.490;7.338;2023-03-17T00:05:22;1999.90;;;999.90;;
2762;SDS011;1389;51.490;7.338;2023-03-17T00:07:50;1999.90;;;999.90;;
2762;SDS011;1389;51.490;7.338;2023-03-17T00:10:21;1999.90;;;999.90;;
2762;SDS011;1389;51.490;7.338;2023-03-17T00:12:50;1999.90;;;999.90;;
2762;SDS011;1389;51.490;7.338;2023-03-17T00:15:20;1999.90;;;999.90;;
2762;SDS011;1389;51.490;7.338;2023-03-17T00:17:47;1999.90;;;999.90;;
2762;SDS011;1389;51.490;7.338;2023-03-17T00:22:52;1999.90;;;999.90;;
2762;SDS011;1389;51.490;7.338;2023-03-17T00:25:21;1999.90;;;999.90;;
2762;SDS011;1389;51.490;7.338;2023-03-17T00:27:52;1999.90;;;999.90;;
2762;SDS011;1389;51.490;7.338;2023-03-17T00:30:20;1999.90;;;999.90;;
2762;SDS011;1389;51.490;7.338;2023-03-17T00:32:47;1999.90;;;999.90;;
2762;SDS011;1389;51.490;7.338;2023-03-17T00:35:20;1999.90;;;999.90;;
2762;SDS011;1389;51.490;7.338;2023-03-17T00:37:48;1999.90;;;999.90;;
2762;SDS011;1389;51.490;7.338;2023-03-17T00:40:18;1999.90;;;999.90;;
2762;SDS011;1389;51.490;7.338;2023-03-17T00:42:46;1999.90;;;999.90;;
2762;SDS011;1389;51.490;7.338;2023-03-17T00:45:13;1999.90;;;999.90;;
2762;SDS011;1389;51.490;7.338;2023-03-17T00:47:41;1999.90;;;999.90;;
2762;SDS011;1389;51.490;7.338;2023-03-17T00:50:09;1999.90;;;999.90;;
2762;SDS011;1389;51.490;7.338;2023-03-17T00:52:42;1999.90;;;999.90;;
2762;SDS011;1389;51.490;7.338;2023-03-17T00:55:10;1999.90;;;999.90;;
2762;SDS011;1389;51.490;7.338;2023-03-17T00:57:37;1999.90;;;999.90;;
2762;SDS011;1389;51.490;7.338;2023-03-17T01:00:05;1999.90;;;999.90;;
2762;SDS011;1389;51.490;7.338;2023-03-17T01:02:42;1999.90;;;999.90;;
2762;SDS011;1389;51.490;7.338;2023-03-17T01:05:09;1999.90;;;999.90;;
2762;SDS011;1389;51.490;7.338;2023-03-17T01:07:35;1999.90;;;999.90;;
2762;SDS011;1389;51.490;7.338;2023-03-17T01:10:03;1999.90;;;999.90;;
2762;SDS011;1389;51.490;7.338;2023-03-17T01:12:35;1999.90;;;999.90;;
2762;SDS011;1389;51.490;7.338;2023-03-17T01:15:01;1999.90;;;999.90;;
2762;SDS011;1389;51.490;7.338;2023-03-17T01:17:27;1999.90;;;999.90;;
2762;SDS011;1389;51.490;7.338;2023-03-17T01:19:54;1999.90;;;999.90;;
2762;SDS011;1389;51.490;7.338;2023-03-17T01:22:20;1999.90;;;999.90;;
2762;SDS011;1389;51.490;7.338;2023-03-17T01:24:46;1999.90;;;999.90;;
2762;SDS011;1389;51.490;7.338;2023-03-17T01:27:12;1999.90;;;999.90;;
2762;SDS011;1389;51.490;7.338;2023-03-17T01:29:39;1999.90;;;999.90;;
2762;SDS011;1389;51.490;7.338;2023-03-17T01:32:05;1999.90;;;999.90;;
2762;SDS011;1389;51.490;7.338;2023-03-17T01:34:31;1999.90;;;999.90;;
2762;SDS011;1389;51.490;7.338;2023-03-17T01:36:58;1999.90;;;999.90;;
2762;SDS011;1389;51.490;7.338;2023-03-17T01:39:24;1999.90;;;999.90;;
2762;SDS011;1389;51.490;7.338;2023-03-17T01:41:52;1999.90;;;999.90;;
2762;SDS011;1389;51.490;7.338;2023-03-17T01:44:21;1999.90;;;999.90;;
2762;SDS011;1389;51.490;7.338;2023-03-17T01:46:48;1999.90;;;999.90;;
2762;SDS011;1389;51.490;7.338;2023-03-17T01:49:18;1999.90;;;999.90;;
2762;SDS011;1389;51.490;7.338;2023-03-17T01:52:08;1999.90;;;999.90;;
2762;SDS011;1389;51.490;7.338;2023-03-17T01:57:12;1999.90;;;999.90;;
2762;SDS011;1389;51.490;7.338;2023-03-17T02:00:03;1999.90;;;999.90;;
2762;SDS011;1389;51.490;7.338;2023-03-17T02:02:35;1999.90;;;999.90;;
2762;SDS011;1389;51.490;7.338;2023-03-17T02:05:04;1999.90;;;999.90;;
2762;SDS011;1389;51.490;7.338;2023-03-17T02:07:33;1999.90;;;999.90;;
2762;SDS011;1389;51.490;7.338;2023-03-17T02:10:00;1999.90;;;999.90;;
2762;SDS011;1389;51.490;7.338;2023-03-17T02:12:28;1999.90;;;999.90;;
2762;SDS011;1389;51.490;7.338;2023-03-17T02:14:55;1999.90;;;999.90;;
2762;SDS011;1389;51.490;7.338;2023-03-17T02:17:22;1999.90;;;999.90;;
2762;SDS011;1389;51.490;7.338;2023-03-17T02:19:49;1999.90;;;999.90;;
2762;SDS011;1389;51.490;7.338;2023-03-17T02:22:16;1999.90;;;999.90;;
2762;SDS011;1389;51.490;7.338;2023-03-17T02:27:21;1999.90;;;999.90;;
2762;SDS011;1389;51.490;7.338;2023-03-17T02:29:52;1999.90;;;999.90;;
2762;SDS011;1389;51.490;7.338;2023-03-17T02:32:18;1999.90;;;999.90;;
2762;SDS011;1389;51.490;7.338;2023-03-17T02:34:45;1999.90;;;999.90;;
2762;SDS011;1389;51.490;7.338;2023-03-17T02:37:12;1999.90;;;999.90;;
2762;SDS011;1389;51.490;7.338;2023-03-17T02:39:39;1999.90;;;999.90;;
2762;SDS011;1389;51.490;7.338;2023-03-17T02:42:06;1999.90;;;999.90;;
2762;SDS011;1389;51.490;7.338;2023-03-17T02:44:32;1999.90;;;999.90;;
2762;SDS011;1389;51.490;7.338;2023-03-17T02:46:58;1999.90;;;999.90;;
2762;SDS011;1389;51.490;7.338;2023-03-17T02:49:25;1999.90;;;999.90;;
2762;SDS011;1389;51.490;7.338;2023-03-17T02:51:52;1999.90;;;999.90;;
2762;SDS011;1389;51.490;7.338;2023-03-17T02:54:18;1999.90;;;999.90;;
2762;SDS011;1389;51.490;7.338;2023-03-17T02:56:44;1999.90;;;999.90;;
2762;SDS011;1389;51.490;7.338;2023-03-17T02:59:10;1999.90;;;999.90;;
2762;SDS011;1389;51.490;7.338;2023-03-17T03:01:36;1999.90;;;999.90;;
2762;SDS011;1389;51.490;7.338;2023-03-17T03:04:04;1999.90;;;999.90;;
2762;SDS011;1389;51.490;7.338;2023-03-17T03:06:31;1999.90;;;999.90;;
2762;SDS011;1389;51.490;7.338;2023-03-17T03:08:58;1999.90;;;999.90;;
2762;SDS011;1389;51.490;7.338;2023-03-17T03:11:24;1999.90;;;999.90;;
2762;SDS011;1389;51.490;7.338;2023-03-17T03:13:51;1999.90;;;999.90;;
2762;SDS011;1389;51.490;7.338;2023-03-17T03:16:17;1999.90;;;999.90;;
2762;SDS011;1389;51.490;7.338;2023-03-17T03:18:43;1999.90;;;999.90;;
2762;SDS011;1389;51.490;7.338;2023-03-17T03:21:09;1999.90;;;999.90;;
2762;SDS011;1389;51.490;7.338;2023-03-17T03:23:35;1999.90;;;999.90;;
2762;SDS011;1389;51.490;7.338;2023-03-17T03:26:01;1999.90;;;999.90;;
2762;SDS011;1389;51.490;7.338;2023-03-17T03:28:28;1999.90;;;999.90;;
2762;SDS011;1389;51.490;7.338;2023-03-17T03:30:54;1999.90;;;999.90;;
2762;SDS011;1389;51.490;7.338;2023-03-17T03:33:20;1999.90;;;999.90;;
2762;SDS011;1389;51.490;7.338;2023-03-17T03:35:46;1999.90;;;999.90;;
2762;SDS011;1389;51.490;7.338;2023-03-17T03:38:13;1999.90;;;999.90;;
2762;SDS011;1389;51.490;7.338;2023-03-17T03:40:39;1999.90;;;999.90;;
2762;SDS011;1389;51.490;7.338;2023-03-17T03:43:05;1999.90;;;999.90;;
2762;SDS011;1389;51.490;7.338;2023-03-17T03:45:31;1999.90;;;999.90;;
2762;SDS011;1389;51.490;7.338;2023-03-17T03:47:58;1999.90;;;999.90;;
2762;SDS011;1389;51.490;7.338;2023-03-17T03:50:24;1999.90;;;999.90;;
2762;SDS011;1389;51.490;7.338;2023-03-17T03:52:50;1999.90;;;999.90;;
2762;SDS011;1389;51.490;7.338;2023-03-17T03:55:16;1999.90;;;999.90;;
2762;SDS011;1389;51.490;7.338;2023-03-17T03:57:42;1999.90;;;999.90;;
2762;SDS011;1389;51.490;7.338;2023-03-17T04:00:09;1999.90;;;999.90;;
2762;SDS011;1389;51.490;7.338;2023-03-17T04:02:39;1999.90;;;999.90;;
2762;SDS011;1389;51.490;7.338;2023-03-17T04:05:06;1999.90;;;999.90;;
2762;SDS011;1389;51.490;7.338;2023-03-17T04:07:34;1999.90;;;999.90;;
2762;SDS011;1389;51.490;7.338;2023-03-17T04:10:01;1999.90;;;999.90;;
2762;SDS011;1389;51.490;7.338;2023-03-17T04:12:28;1999.90;;;999.90;;
2762;SDS011;1389;51.490;7.338;2023-03-17T04:14:54;1999.90;;;999.90;;
2762;SDS011;1389;51.490;7.338;2023-03-17T04:17:20;1999.90;;;999.90;;
2762;SDS011;1389;51.490;7.338;2023-03-17T04:19:46;1999.90;;;999.90;;
2762;SDS011;1389;51.490;7.338;2023-03-17T04:22:13;1999.90;;;999.90;;
2762;SDS011;1389;51.490;7.338;2023-03-17T04:24:39;1999.90;;;999.90;;
2762;SDS011;1389;51.490;7.338;2023-03-17T04:27:06;1999.90;;;999.90;;
2762;SDS011;1389;51.490;7.338;2023-03-17T04:29:32;1999.90;;;999.90;;
2762;SDS011;1389;51.490;7.338;2023-03-17T04:31:58;1999.90;;;999.90;;
2762;SDS011;1389;51.490;7.338;2023-03-17T04:34:24;1999.90;;;999.90;;
2762;SDS011;1389;51.490;7.338;2023-03-17T04:36:51;1999.90;;;999.90;;
2762;SDS011;1389;51.490;7.338;2023-03-17T04:39:17;1999.90;;;999.90;;
2762;SDS011;1389;51.490;7.338;2023-03-17T04:41:43;1999.90;;;999.90;;
2762;SDS011;1389;51.490;7.338;2023-03-17T04:44:11;1999.90;;;999.90;;
2762;SDS011;1389;51.490;7.338;2023-03-17T04:46:37;1999.90;;;999.90;;
2762;SDS011;1389;51.490;7.338;2023-03-17T04:49:03;1999.90;;;999.90;;
2762;SDS011;1389;51.490;7.338;2023-03-17T04:51:29;1999.90;;;999.90;;
2762;SDS011;1389;51.490;7.338;2023-03-17T04:53:55;1999.90;;;999.90;;
2762;SDS011;1389;51.490;7.338;2023-03-17T04:56:21;1999.90;;;999.90;;
2762;SDS011;1389;51.490;7.338;2023-03-17T04:58:47;1999.90;;;999.90;;
2762;SDS011;1389;51.490;7.338;2023-03-17T05:01:14;1999.90;;;999.90;;
2762;SDS011;1389;51.490;7.338;2023-03-17T05:03:40;1999.90;;;999.90;;
2762;SDS011;1389;51.490;7.338;2023-03-17T05:06:06;1999.90;;;999.90;;
2762;SDS011;1389;51.490;7.338;2023-03-17T05:08:32;1999.90;;;999.90;;
2762;SDS011;1389;51.490;7.338;2023-03-17T05:10:59;1999.90;;;999.90;;
2762;SDS011;1389;51.490;7.338;2023-03-17T05:13:25;1999.90;;;999.90;;
2762;SDS011;1389;51.490;7.338;2023-03-17T05:15:52;1999.90;;;999.90;;
2762;SDS011;1389;51.490;7.338;2023-03-17T05:18:20;1999.90;;;999.90;;
2762;SDS011;1389;51.490;7.338;2023-03-17T05:20:47;1999.90;;;999.90;;
2762;SDS011;1389;51.490;7.338;2023-03-17T05:23:14;1999.90;;;999.90;;
2762;SDS011;1389;51.490;7.338;2023-03-17T05:25:40;1999.90;;;999.90;;
2762;SDS011;1389;51.490;7.338;2023-03-17T05:28:06;1999.90;;;999.90;;
2762;SDS011;1389;51.490;7.338;2023-03-17T05:30:33;1999.90;;;999.90;;
2762;SDS011;1389;51.490;7.338;2023-03-17T05:33:02;1999.90;;;999.90;;
2762;SDS011;1389;51.490;7.338;2023-03-17T05:35:28;1999.90;;;999.90;;
2762;SDS011;1389;51.490;7.338;2023-03-17T05:37:55;1999.90;;;999.90;;
2762;SDS011;1389;51.490;7.338;2023-03-17T05:40:21;1999.90;;;999.90;;
2762;SDS011;1389;51.490;7.338;2023-03-17T05:42:49;1999.90;;;999.90;;
2762;SDS011;1389;51.490;7.338;2023-03-17T05:45:15;1999.90;;;999.90;;
2762;SDS011;1389;51.490;7.338;2023-03-17T05:47:42;1999.90;;;999.90;;
2762;SDS011;1389;51.490;7.338;2023-03-17T05:50:09;1999.90;;;999.90;;
2762;SDS011;1389;51.490;7.338;2023-03-17T05:52:36;1999.90;;;999.90;;
2762;SDS011;1389;51.490;7.338;2023-03-17T05:55:02;1999.90;;;999.90;;
2762;SDS011;1389;51.490;7.338;2023-03-17T05:57:29;1999.90;;;999.90;;
2762;SDS011;1389;51.490;7.338;2023-03-17T05:59:55;1999.90;;;999.90;;
2762;SDS011;1389;51.490;7.338;2023-03-17T06:02:22;1999.90;;;999.90;;
2762;SDS011;1389;51.490;7.338;2023-03-17T06:04:48;1999.90;;;999.90;;
2762;SDS011;1389;51.490;7.338;2023-03-17T06:07:14;1999.90;;;999.90;;
2762;SDS011;1389;51.490;7.338;2023-03-17T06:09:40;1999.90;;;999.90;;
2762;SDS011;1389;51.490;7.338;2023-03-17T06:12:06;1999.90;;;999.90;;
2762;SDS011;1389;51.490;7.338;2023-03-17T06:14:33;1999.90;;;999.90;;
2762;SDS011;1389;51.490;7.338;2023-03-17T06:16:59;1999.90;;;999.90;;
2762;SDS011;1389;51.490;7.338;2023-03-17T06:19:25;1999.90;;;999.90;;
2762;SDS011;1389;51.490;7.338;2023-03-17T06:21:51;1999.90;;;999.90;;
2762;SDS011;1389;51.490;7.338;2023-03-17T06:24:17;1999.90;;;999.90;;
2762;SDS011;1389;51.490;7.338;2023-03-17T06:26:43;1999.90;;;999.90;;
2762;SDS011;1389;51.490;7.338;2023-03-17T06:29:09;1999.90;;;999.90;;
2762;SDS011;1389;51.490;7.338;2023-03-17T06:31:37;1999.90;;;999.90;;
2762;SDS011;1389;51.490;7.338;2023-03-17T06:34:04;1999.90;;;999.90;;
2762;SDS011;1389;51.490;7.338;2023-03-17T06:36:31;1999.90;;;999.90;;
2762;SDS011;1389;51.490;7.338;2023-03-17T06:38:58;1999.90;;;999.90;;
2762;SDS011;1389;51.490;7.338;2023-03-17T06:41:25;1999.90;;;999.90;;
2762;SDS011;1389;51.490;7.338;2023-03-17T06:43:51;1999.90;;;999.90;;
2762;SDS011;1389;51.490;7.338;2023-03-17T06:46:17;1999.90;;;999.90;;
2762;SDS011;1389;51.490;7.338;2023-03-17T06:48:43;1999.90;;;999.90;;
2762;SDS011;1389;51.490;7.338;2023-03-17T06:51:09;1999.90;;;999.90;;
2762;SDS011;1389;51.490;7.338;2023-03-17T06:53:35;1999.90;;;999.90;;
2762;SDS011;1389;51.490;7.338;2023-03-17T06:56:02;1999.90;;;999.90;;
2762;SDS011;1389;51.490;7.338;2023-03-17T06:58:29;1999.90;;;999.90;;
2762;SDS011;1389;51.490;7.338;2023-03-17T07:00:56;1999.90;;;999.90;;
2762;SDS011;1389;51.490;7.338;2023-03-17T07:03:24;1999.90;;;999.90;;
2762;SDS011;1389;51.490;7.338;2023-03-17T07:05:51;1999.90;;;999.90;;
2762;SDS011;1389;51.490;7.338;2023-03-17T07:08:17;1999.90;;;999.90;;
2762;SDS011;1389;51.490;7.338;2023-03-17T07:10:43;1999.90;;;999.90;;
2762;SDS011;1389;51.490;7.338;2023-03-17T07:13:10;1999.90;;;999.90;;
2762;SDS011;1389;51.490;7.338;2023-03-17T07:15:36;1999.90;;;999.90;;
2762;SDS011;1389;51.490;7.338;2023-03-17T07:18:03;1999.90;;;999.90;;
2762;SDS011;1389;51.490;7.338;2023-03-17T07:20:30;1999.90;;;999.90;;
2762;SDS011;1389;51.490;7.338;2023-03-17T07:22:57;1999.90;;;999.90;;
2762;SDS011;1389;51.490;7.338;2023-03-17T07:25:25;1999.90;;;999.90;;
2762;SDS011;1389;51.490;7.338;2023-03-17T07:27:51;1999.90;;;999.90;;
2762;SDS011;1389;51.490;7.338;2023-03-17T07:30:17;1999.90;;;999.90;;
2762;SDS011;1389;51.490;7.338;2023-03-17T07:32:44;1999.90;;;999.90;;
2762;SDS011;1389;51.490;7.338;2023-03-17T07:35:12;1999.90;;;999.90;;
2762;SDS011;1389;51.490;7.338;2023-03-17T07:37:40;1999.90;;;999.90;;
2762;SDS011;1389;51.490;7.338;2023-03-17T07:40:07;1999.90;;;999.90;;
2762;SDS011;1389;51.490;7.338;2023-03-17T07:42:35;1999.90;;;999.90;;
2762;SDS011;1389;51.490;7.338;2023-03-17T07:45:02;1999.90;;;999.90;;
2762;SDS011;1389;51.490;7.338;2023-03-17T07:47:30;1999.90;;;999.90;;
2762;SDS011;1389;51.490;7.338;2023-03-17T07:49:56;1999.90;;;999.90;;
2762;SDS011;1389;51.490;7.338;2023-03-17T07:52:22;1999.90;;;999.90;;
2762;SDS011;1389;51.490;7.338;2023-03-17T07:54:48;1999.90;;;999.90;;
2762;SDS011;1389;51.490;7.338;2023-03-17T07:57:16;1999.90;;;999.90;;
2762;SDS011;1389;51.490;7.338;2023-03-17T07:59:42;1999.90;;;999.90;;
2762;SDS011;1389;51.490;7.338;2023-03-17T08:02:15;1999.90;;;999.90;;
2762;SDS011;1389;51.490;7.338;2023-03-17T08:04:42;1999.90;;;999.90;;
2762;SDS011;1389;51.490;7.338;2023-03-17T08:07:09;1999.90;;;999.90;;
2762;SDS011;1389;51.490;7.338;2023-03-17T08:09:36;1999.90;;;999.90;;
2762;SDS011;1389;51.490;7.338;2023-03-17T08:12:02;1999.90;;;999.90;;
2762;SDS011;1389;51.490;7.338;2023-03-17T08:14:29;1999.90;;;999.90;;
2762;SDS011;1389;51.490;7.338;2023-03-17T08:16:55;1999.90;;;999.90;;
2762;SDS011;1389;51.490;7.338;2023-03-17T08:19:22;1999.90;;;999.90;;
2762;SDS011;1389;51.490;7.338;2023-03-17T08:21:48;1999.90;;;999.90;;
2762;SDS011;1389;51.490;7.338;2023-03-17T08:24:15;1999.90;;;999.90;;
2762;SDS011;1389;51.490;7.338;2023-03-17T08:26:41;1999.90;;;999.90;;
2762;SDS011;1389;51.490;7.338;2023-03-17T08:29:08;1999.90;;;999.90;;
2762;SDS011;1389;51.490;7.338;2023-03-17T08:31:34;1999.90;;;999.90;;
2762;SDS011;1389;51.490;7.338;2023-03-17T08:34:00;1999.90;;;999.90;;
2762;SDS011;1389;51.490;7.338;2023-03-17T08:36:27;1999.90;;;999.90;;
2762;SDS011;1389;51.490;7.338;2023-03-17T08:38:53;1999.90;;;999.90;;
2762;SDS011;1389;51.490;7.338;2023-03-17T08:41:21;1999.90;;;999.90;;
2762;SDS011;1389;51.490;7.338;2023-03-17T08:43:48;1999.90;;;999.90;;
2762;SDS011;1389;51.490;7.338;2023-03-17T08:46:17;1999.90;;;999.90;;
2762;SDS011;1389;51.490;7.338;2023-03-17T08:48:45;1999.90;;;999.90;;
2762;SDS011;1389;51.490;7.338;2023-03-17T08:51:13;1999.90;;;999.90;;
2762;SDS011;1389;51.490;7.338;2023-03-17T08:53:40;1999.90;;;999.90;;
2762;SDS011;1389;51.490;7.338;2023-03-17T08:56:07;1999.90;;;999.90;;
2762;SDS011;1389;51.490;7.338;2023-03-17T08:58:34;1999.90;;;999.90;;
2762;SDS011;1389;51.490;7.338;2023-03-17T09:01:02;1999.90;;;999.90;;
2762;SDS011;1389;51.490;7.338;2023-03-17T09:03:29;1999.90;;;999.90;;
2762;SDS011;1389;51.490;7.338;2023-03-17T09:05:57;1999.90;;;999.90;;
2762;SDS011;1389;51.490;7.338;2023-03-17T09:08:24;1999.90;;;999.90;;
2762;SDS011;1389;51.490;7.338;2023-03-17T09:10:52;1999.90;;;999.90;;
2762;SDS011;1389;51.490;7.338;2023-03-17T09:13:19;1999.90;;;999.90;;
2762;SDS011;1389;51.490;7.338;2023-03-17T09:15:46;1999.90;;;999.90;;
2762;SDS011;1389;51.490;7.338;2023-03-17T09:18:13;1999.90;;;999.90;;
2762;SDS011;1389;51.490;7.338;2023-03-17T09:20:39;1999.90;;;999.90;;
2762;SDS011;1389;51.490;7.338;2023-03-17T09:23:06;1999.90;;;999.90;;
2762;SDS011;1389;51.490;7.338;2023-03-17T09:25:36;1999.90;;;999.90;;
2762;SDS011;1389;51.490;7.338;2023-03-17T09:28:03;1999.90;;;999.90;;
2762;SDS011;1389;51.490;7.338;2023-03-17T09:30:31;1999.90;;;999.90;;
2762;SDS011;1389;51.490;7.338;2023-03-17T09:32:58;1999.90;;;999.90;;
2762;SDS011;1389;51.490;7.338;2023-03-17T09:35:25;1999.90;;;999.90;;
2762;SDS011;1389;51.490;7.338;2023-03-17T09:37:56;1999.90;;;999.90;;
2762;SDS011;1389;51.490;7.338;2023-03-17T09:40:26;1999.90;;;999.90;;
2762;SDS011;1389;51.490;7.338;2023-03-17T09:43:01;1999.90;;;999.90;;
2762;SDS011;1389;51.490;7.338;2023-03-17T09:45:30;1999.90;;;999.90;;
2762;SDS011;1389;51.490;7.338;2023-03-17T09:48:28;1999.90;;;999.90;;
2762;SDS011;1389;51.490;7.338;2023-03-17T09:53:31;1999.90;;;999.90;;
2762;SDS011;1389;51.490;7.338;2023-03-17T09:56:12;1999.90;;;999.90;;
2762;SDS011;1389;51.490;7.338;2023-03-17T09:58:41;1999.90;;;999.90;;
2762;SDS011;1389;51.490;7.338;2023-03-17T10:01:16;1999.90;;;999.90;;
2762;SDS011;1389;51.490;7.338;2023-03-17T10:03:42;1999.90;;;999.90;;
2762;SDS011;1389;51.490;7.338;2023-03-17T10:09:06;1999.90;;;999.90;;
2762;SDS011;1389;51.490;7.338;2023-03-17T10:12:03;1999.90;;;999.90;;
2762;SDS011;1389;51.490;7.338;2023-03-17T10:17:33;1999.90;;;999.90;;
2762;SDS011;1389;51.490;7.338;2023-03-17T10:20:13;1999.90;;;999.90;;
2762;SDS011;1389;51.490;7.338;2023-03-17T10:22:47;1999.90;;;999.90;;
2762;SDS011;1389;51.490;7.338;2023-03-17T10:25:18;1999.90;;;999.90;;
2762;SDS011;1389;51.490;7.338;2023-03-17T10:27:48;1999.90;;;999.90;;
2762;SDS011;1389;51.490;7.338;2023-03-17T10:30:28;1999.90;;;999.90;;
2762;SDS011;1389;51.490;7.338;2023-03-17T10:32:58;1999.90;;;999.90;;
2762;SDS011;1389;51.490;7.338;2023-03-17T10:35:26;1999.90;;;999.90;;
2762;SDS011;1389;51.490;7.338;2023-03-17T10:37:52;1999.90;;;999.90;;
2762;SDS011;1389;51.490;7.338;2023-03-17T10:40:23;1999.90;;;999.90;;
2762;SDS011;1389;51.490;7.338;2023-03-17T10:42:52;1999.90;;;999.90;;
2762;SDS011;1389;51.490;7.338;2023-03-17T10:45:23;1999.90;;;999.90;;
2762;SDS011;1389;51.490;7.338;2023-03-17T10:47:53;1999.90;;;999.90;;
2762;SDS011;1389;51.490;7.338;2023-03-17T10:50:28;1999.90;;;999.90;;
2762;SDS011;1389;51.490;7.338;2023-03-17T10:53:03;1999.90;;;999.90;;
2762;SDS011;1389;51.490;7.338;2023-03-17T10:55:33;1999.90;;;999.90;;
2762;SDS011;1389;51.490;7.338;2023-03-17T11:00:45;1999.90;;;999.90;;
2762;SDS011;1389;51.490;7.338;2023-03-17T11:03:26;1999.90;;;999.90;;
2762;SDS011;1389;51.490;7.338;2023-03-17T11:08:32;1999.90;;;999.90;;
2762;SDS011;1389;51.490;7.338;2023-03-17T11:11:08;1999.90;;;999.90;;
2762;SDS011;1389;51.490;7.338;2023-03-17T11:13:46;1999.90;;;999.90;;
2762;SDS011;1389;51.490;7.338;2023-03-17T11:16:20;1999.90;;;999.90;;
2762;SDS011;1389;51.490;7.338;2023-03-17T11:18:47;1999.90;;;999.90;;
2762;SDS011;1389;51.490;7.338;2023-03-17T11:21:21;1999.90;;;999.90;;
2762;SDS011;1389;51.490;7.338;2023-03-17T11:24:15;1999.90;;;999.90;;
2762;SDS011;1389;51.490;7.338;2023-03-17T11:26:51;1999.90;;;999.90;;
2762;SDS011;1389;51.490;7.338;2023-03-17T11:35:02;1999.90;;;999.90;;
2762;SDS011;1389;51.490;7.338;2023-03-17T11:40:24;1999.90;;;999.90;;
2762;SDS011;1389;51.490;7.338;2023-03-17T11:46:07;1999.90;;;999.90;;
2762;SDS011;1389;51.490;7.338;2023-03-17T11:57:07;1999.90;;;999.90;;
2762;SDS011;1389;51.490;7.338;2023-03-17T11:59:56;1999.90;;;999.90;;
2762;SDS011;1389;51.490;7.338;2023-03-17T12:05:04;1999.90;;;999.90;;
2762;SDS011;1389;51.490;7.338;2023-03-17T12:07:35;1999.90;;;999.90;;
2762;SDS011;1389;51.490;7.338;2023-03-17T12:10:22;1999.90;;;999.90;;
2762;SDS011;1389;51.490;7.338;2023-03-17T12:13:04;1999.90;;;999.90;;
2762;SDS011;1389;51.490;7.338;2023-03-17T12:15:38;1999.90;;;999.90;;
2762;SDS011;1389;51.490;7.338;2023-03-17T12:18:23;1999.90;;;999.90;;
2762;SDS011;1389;51.490;7.338;2023-03-17T12:21:08;1999.90;;;999.90;;
2762;SDS011;1389;51.490;7.338;2023-03-17T12:23:49;784.42;;;355.33;;
2762;SDS011;1389;51.490;7.338;2023-03-17T12:26:35;380.48;;;153.70;;
2762;SDS011;1389;51.490;7.338;2023-03-17T12:29:27;380.88;;;150.15;;
2762;SDS011;1389;51.490;7.338;2023-03-17T12:35:02;416.27;;;165.32;;
2762;SDS011;1389;51.490;7.338;2023-03-17T12:37:43;396.15;;;160.40;;
2762;SDS011;1389;51.490;7.338;2023-03-17T12:40:14;385.45;;;151.38;;
2762;SDS011;1389;51.490;7.338;2023-03-17T12:48:42;383.33;;;149.32;;
2762;SDS011;1389;51.490;7.338;2023-03-17T12:57:03;380.33;;;149.75;;
2762;SDS011;1389;51.490;7.338;2023-03-17T12:59:40;380.88;;;150.98;;
2762;SDS011;1389;51.490;7.338;2023-03-17T13:02:21;384.52;;;152.20;;
2762;SDS011;1389;51.490;7.338;2023-03-17T13:04:57;382.63;;;148.43;;
2762;SDS011;1389;51.490;7.338;2023-03-17T13:10:17;382.42;;;146.07;;
2762;SDS011;1389;51.490;7.338;2023-03-17T13:13:06;373.57;;;137.90;;
2762;SDS011;1389;51.490;7.338;2023-03-17T13:18:21;379.17;;;136.73;;
2762;SDS011;1389;51.490;7.338;2023-03-17T13:21:10;373.60;;;132.85;;
2762;SDS011;1389;51.490;7.338;2023-03-17T13:26:21;373.08;;;137.10;;
2762;SDS011;1389;51.490;7.338;2023-03-17T13:29:22;376.40;;;136.30;;
2762;SDS011;1389;51.490;7.338;2023-03-17T13:31:49;381.13;;;136.00;;
2762;SDS011;1389;51.490;7.338;2023-03-17T13:34:16;371.88;;;134.27;;
2762;SDS011;1389;51.490;7.338;2023-03-17T13:39:44;374.27;;;132.80;;
2762;SDS011;1389;51.490;7.338;2023-03-17T13:47:35;378.42;;;142.82;;
2762;SDS011;1389;51.490;7.338;2023-03-17T13:50:11;377.97;;;143.20;;
2762;SDS011;1389;51.490;7.338;2023-03-17T13:52:47;383.27;;;145.48;;
2762;SDS011;1389;51.490;7.338;2023-03-17T14:00:33;374.20;;;139.00;;
2762;SDS011;1389;51.490;7.338;2023-03-17T14:05:30;379.40;;;145.80;;
2762;SDS011;1389;51.490;7.338;2023-03-17T14:08:01;378.13;;;145.55;;
2762;SDS011;1389;51.490;7.338;2023-03-17T14:10:31;378.70;;;146.40;;
2762;SDS011;1389;51.490;7.338;2023-03-17T14:18:35;377.05;;;144.00;;
2762;SDS011;1389;51.490;7.338;2023-03-17T14:21:05;381.58;;;151.40;;
2762;SDS011;1389;51.490;7.338;2023-03-17T14:23:50;379.90;;;148.73;;
2762;SDS011;1389;51.490;7.338;2023-03-17T14:26:17;381.90;;;149.73;;
2762;SDS011;1389;51.490;7.338;2023-03-17T14:28:46;382.80;;;146.40;;
2762;SDS011;1389;51.490;7.338;2023-03-17T14:31:18;383.10;;;143.75;;
2762;SDS011;1389;51.490;7.338;2023-03-17T14:33:47;376.52;;;142.05;;
2762;SDS011;1389;51.490;7.338;2023-03-17T14:36:16;380.55;;;145.18;;
2762;SDS011;1389;51.490;7.338;2023-03-17T14:38:47;377.90;;;145.45;;
2762;SDS011;1389;51.490;7.338;2023-03-17T14:41:17;377.55;;;145.27;;
2762;SDS011;1389;51.490;7.338;2023-03-17T14:43:45;381.92;;;147.57;;
2762;SDS011;1389;51.490;7.338;2023-03-17T14:46:21;382.52;;;147.63;;
2762;SDS011;1389;51.490;7.338;2023-03-17T14:48:49;379.08;;;147.00;;
2762;SDS011;1389;51.490;7.338;2023-03-17T14:51:26;391.60;;;147.38;;
2762;SDS011;1389;51.490;7.338;2023-03-17T14:54:04;376.33;;;141.77;;
2762;SDS011;1389;51.490;7.338;2023-03-17T14:56:41;373.80;;;138.40;;
2762;SDS011;1389;51.490;7.338;2023-03-17T15:01:54;389.20;;;164.02;;
2762;SDS011;1389;51.490;7.338;2023-03-17T15:04:23;385.40;;;155.50;;
2762;SDS011;1389;51.490;7.338;2023-03-17T15:11:46;381.33;;;158.98;;
2762;SDS011;1389;51.490;7.338;2023-03-17T15:14:17;385.17;;;164.60;;
2762;SDS011;1389;51.490;7.338;2023-03-17T15:16:48;387.48;;;161.02;;
2762;SDS011;1389;51.490;7.338;2023-03-17T15:19:59;383.90;;;162.27;;
2762;SDS011;1389;51.490;7.338;2023-03-17T15:22:23;386.27;;;167.70;;
2762;SDS011;1389;51.490;7.338;2023-03-17T15:27:40;389.17;;;172.23;;
2762;SDS011;1389;51.490;7.338;2023-03-17T15:30:08;400.80;;;189.63;;
2762;SDS011;1389;51.490;7.338;2023-03-17T15:32:34;406.30;;;200.68;;
2762;SDS011;1389;51.490;7.338;2023-03-17T15:35:00;409.90;;;209.80;;
2762;SDS011;1389;51.490;7.338;2023-03-17T15:37:30;436.60;;;227.90;;
2762;SDS011;1389;51.490;7.338;2023-03-17T15:39:58;426.27;;;227.47;;
2762;SDS011;1389;51.490;7.338;2023-03-17T15:42:26;424.63;;;237.85;;
2762;SDS011;1389;51.490;7.338;2023-03-17T15:44:55;447.60;;;251.02;;
2762;SDS011;1389;51.490;7.338;2023-03-17T15:47:23;445.20;;;251.10;;
2762;SDS011;1389;51.490;7.338;2023-03-17T15:49:53;435.58;;;248.52;;
2762;SDS011;1389;51.490;7.338;2023-03-17T15:52:24;438.30;;;246.05;;
2762;SDS011;1389;51.490;7.338;2023-03-17T15:54:52;435.63;;;249.27;;
2762;SDS011;1389;51.490;7.338;2023-03-17T15:57:20;439.73;;;256.48;;
2762;SDS011;1389;51.490;7.338;2023-03-17T15:59:46;449.98;;;261.30;;
2762;SDS011;1389;51.490;7.338;2023-03-17T16:04:38;453.02;;;269.25;;